<?xml version="1.0" encoding="UTF-8" standalone="no" ?>
<gpx xmlns="http://www.topografix.com/GPX/1/1" xmlns:xsi="http://www.w3.org/2001/XMLSchema-instance" xsi:schemaLocation="http://www.topografix.com/GPX/1/1 http://www.topografix.com/GPX/1/1/gpx.xsd" version="1.1" creator="VisuGPX - https://www.visugpx.com">
  <metadata>
    <name>Le Perray en Yvelines</name>
    <desc><![CDATA[Départ près du cimetière des Essarts le Roy]]></desc>
  </metadata>
  <trk>
    <name><![CDATA[20180407120023-p7Ruj]]></name>
    <trkseg>
      <trkpt lat="48.71551" lon="1.89651">
        <ele>170</ele>
        <time>2018-04-07T11:37:49Z</time>
      </trkpt>
      <trkpt lat="48.71537" lon="1.89583">
        <ele>170</ele>
        <time>2018-04-07T11:38:49Z</time>
      </trkpt>
      <trkpt lat="48.71484" lon="1.89603">
        <ele>168</ele>
        <time>2018-04-07T11:39:49Z</time>
      </trkpt>
      <trkpt lat="48.71413" lon="1.89585">
        <ele>168</ele>
        <time>2018-04-07T11:40:49Z</time>
      </trkpt>
      <trkpt lat="48.7138" lon="1.89622">
        <ele>171</ele>
        <time>2018-04-07T11:41:49Z</time>
      </trkpt>
      <trkpt lat="48.71304" lon="1.89706">
        <ele>178</ele>
        <time>2018-04-07T11:42:49Z</time>
      </trkpt>
      <trkpt lat="48.71279" lon="1.89708">
        <ele>179</ele>
        <time>2018-04-07T11:43:49Z</time>
      </trkpt>
      <trkpt lat="48.71246" lon="1.89747">
        <ele>183</ele>
        <time>2018-04-07T11:44:49Z</time>
      </trkpt>
      <trkpt lat="48.71192" lon="1.8977">
        <ele>185</ele>
        <time>2018-04-07T11:45:49Z</time>
      </trkpt>
      <trkpt lat="48.71145" lon="1.89802">
        <ele>188</ele>
        <time>2018-04-07T11:46:49Z</time>
      </trkpt>
      <trkpt lat="48.71114" lon="1.89824">
        <ele>188</ele>
        <time>2018-04-07T11:47:49Z</time>
      </trkpt>
      <trkpt lat="48.70963" lon="1.89869">
        <ele>187</ele>
        <time>2018-04-07T11:48:49Z</time>
      </trkpt>
      <trkpt lat="48.70702" lon="1.90124">
        <ele>177</ele>
        <time>2018-04-07T11:49:49Z</time>
      </trkpt>
      <trkpt lat="48.70631" lon="1.90165">
        <ele>178</ele>
        <time>2018-04-07T11:50:49Z</time>
      </trkpt>
      <trkpt lat="48.70311" lon="1.90162">
        <ele>181</ele>
        <time>2018-04-07T11:51:49Z</time>
      </trkpt>
      <trkpt lat="48.70316" lon="1.90054">
        <ele>182</ele>
        <time>2018-04-07T11:52:49Z</time>
      </trkpt>
      <trkpt lat="48.70353" lon="1.89875">
        <ele>180</ele>
        <time>2018-04-07T11:53:49Z</time>
      </trkpt>
      <trkpt lat="48.70398" lon="1.8972">
        <ele>178</ele>
        <time>2018-04-07T11:54:49Z</time>
      </trkpt>
      <trkpt lat="48.70419" lon="1.89658">
        <ele>178</ele>
        <time>2018-04-07T11:55:49Z</time>
      </trkpt>
      <trkpt lat="48.70438" lon="1.89529">
        <ele>175</ele>
        <time>2018-04-07T11:56:49Z</time>
      </trkpt>
      <trkpt lat="48.70409" lon="1.89429">
        <ele>168</ele>
        <time>2018-04-07T11:57:49Z</time>
      </trkpt>
      <trkpt lat="48.70427" lon="1.89371">
        <ele>174</ele>
        <time>2018-04-07T11:58:49Z</time>
      </trkpt>
      <trkpt lat="48.70393" lon="1.89339">
        <ele>164</ele>
        <time>2018-04-07T11:59:49Z</time>
      </trkpt>
      <trkpt lat="48.70357" lon="1.89355">
        <ele>159</ele>
        <time>2018-04-07T12:00:49Z</time>
      </trkpt>
      <trkpt lat="48.70294" lon="1.8935">
        <ele>148</ele>
        <time>2018-04-07T12:01:49Z</time>
      </trkpt>
      <trkpt lat="48.70231" lon="1.89251">
        <ele>142</ele>
        <time>2018-04-07T12:02:49Z</time>
      </trkpt>
      <trkpt lat="48.70178" lon="1.89189">
        <ele>143</ele>
        <time>2018-04-07T12:03:49Z</time>
      </trkpt>
      <trkpt lat="48.70233" lon="1.88968">
        <ele>144</ele>
        <time>2018-04-07T12:04:49Z</time>
      </trkpt>
      <trkpt lat="48.70263" lon="1.88993">
        <ele>144</ele>
        <time>2018-04-07T12:05:49Z</time>
      </trkpt>
      <trkpt lat="48.70334" lon="1.88852">
        <ele>148</ele>
        <time>2018-04-07T12:06:49Z</time>
      </trkpt>
      <trkpt lat="48.70349" lon="1.88868">
        <ele>148</ele>
        <time>2018-04-07T12:07:49Z</time>
      </trkpt>
      <trkpt lat="48.70389" lon="1.88795">
        <ele>151</ele>
        <time>2018-04-07T12:08:49Z</time>
      </trkpt>
      <trkpt lat="48.70398" lon="1.88745">
        <ele>152</ele>
        <time>2018-04-07T12:09:49Z</time>
      </trkpt>
      <trkpt lat="48.70395" lon="1.88625">
        <ele>152</ele>
        <time>2018-04-07T12:10:49Z</time>
      </trkpt>
      <trkpt lat="48.70403" lon="1.88535">
        <ele>151</ele>
        <time>2018-04-07T12:11:49Z</time>
      </trkpt>
      <trkpt lat="48.70252" lon="1.88524">
        <ele>150</ele>
        <time>2018-04-07T12:12:49Z</time>
      </trkpt>
      <trkpt lat="48.7024" lon="1.88502">
        <ele>150</ele>
        <time>2018-04-07T12:13:49Z</time>
      </trkpt>
      <trkpt lat="48.70253" lon="1.88363">
        <ele>148</ele>
        <time>2018-04-07T12:14:49Z</time>
      </trkpt>
      <trkpt lat="48.7023" lon="1.88235">
        <ele>149</ele>
        <time>2018-04-07T12:15:49Z</time>
      </trkpt>
      <trkpt lat="48.70229" lon="1.88192">
        <ele>150</ele>
        <time>2018-04-07T12:16:49Z</time>
      </trkpt>
      <trkpt lat="48.70215" lon="1.88139">
        <ele>153</ele>
        <time>2018-04-07T12:17:49Z</time>
      </trkpt>
      <trkpt lat="48.70224" lon="1.88036">
        <ele>160</ele>
        <time>2018-04-07T12:18:49Z</time>
      </trkpt>
      <trkpt lat="48.70257" lon="1.87894">
        <ele>169</ele>
        <time>2018-04-07T12:19:49Z</time>
      </trkpt>
      <trkpt lat="48.70273" lon="1.87757">
        <ele>171</ele>
        <time>2018-04-07T12:20:49Z</time>
      </trkpt>
      <trkpt lat="48.70203" lon="1.87034">
        <ele>178</ele>
        <time>2018-04-07T12:21:49Z</time>
      </trkpt>
      <trkpt lat="48.70026" lon="1.87163">
        <ele>172</ele>
        <time>2018-04-07T12:22:49Z</time>
      </trkpt>
      <trkpt lat="48.69917" lon="1.87188">
        <ele>172</ele>
        <time>2018-04-07T12:23:49Z</time>
      </trkpt>
      <trkpt lat="48.69815" lon="1.87214">
        <ele>171</ele>
        <time>2018-04-07T12:24:49Z</time>
      </trkpt>
      <trkpt lat="48.69764" lon="1.86879">
        <ele>172</ele>
        <time>2018-04-07T12:25:49Z</time>
      </trkpt>
      <trkpt lat="48.696" lon="1.8663">
        <ele>174</ele>
        <time>2018-04-07T12:26:49Z</time>
      </trkpt>
      <trkpt lat="48.69607" lon="1.86609">
        <ele>174</ele>
        <time>2018-04-07T12:27:49Z</time>
      </trkpt>
      <trkpt lat="48.69591" lon="1.86566">
        <ele>174</ele>
        <time>2018-04-07T12:28:49Z</time>
      </trkpt>
      <trkpt lat="48.69586" lon="1.86494">
        <ele>175</ele>
        <time>2018-04-07T12:29:49Z</time>
      </trkpt>
      <trkpt lat="48.69556" lon="1.8652">
        <ele>172</ele>
        <time>2018-04-07T12:30:49Z</time>
      </trkpt>
      <trkpt lat="48.69548" lon="1.86543">
        <ele>172</ele>
        <time>2018-04-07T12:31:49Z</time>
      </trkpt>
      <trkpt lat="48.69486" lon="1.86519">
        <ele>171</ele>
        <time>2018-04-07T12:32:49Z</time>
      </trkpt>
      <trkpt lat="48.69438" lon="1.86636">
        <ele>172</ele>
        <time>2018-04-07T12:33:49Z</time>
      </trkpt>
      <trkpt lat="48.6941" lon="1.86768">
        <ele>172</ele>
        <time>2018-04-07T12:34:49Z</time>
      </trkpt>
      <trkpt lat="48.69246" lon="1.86909">
        <ele>172</ele>
        <time>2018-04-07T12:35:49Z</time>
      </trkpt>
      <trkpt lat="48.69213" lon="1.86854">
        <ele>172</ele>
        <time>2018-04-07T12:36:49Z</time>
      </trkpt>
      <trkpt lat="48.68928" lon="1.86872">
        <ele>172</ele>
        <time>2018-04-07T12:37:49Z</time>
      </trkpt>
      <trkpt lat="48.68904" lon="1.86858">
        <ele>173</ele>
        <time>2018-04-07T12:38:49Z</time>
      </trkpt>
      <trkpt lat="48.68886" lon="1.86805">
        <ele>173</ele>
        <time>2018-04-07T12:39:49Z</time>
      </trkpt>
      <trkpt lat="48.68688" lon="1.86868">
        <ele>174</ele>
        <time>2018-04-07T12:40:49Z</time>
      </trkpt>
      <trkpt lat="48.68714" lon="1.8675">
        <ele>173</ele>
        <time>2018-04-07T12:41:49Z</time>
      </trkpt>
      <trkpt lat="48.68702" lon="1.86745">
        <ele>173</ele>
        <time>2018-04-07T12:42:49Z</time>
      </trkpt>
      <trkpt lat="48.68708" lon="1.86701">
        <ele>173</ele>
        <time>2018-04-07T12:43:49Z</time>
      </trkpt>
      <trkpt lat="48.68689" lon="1.86654">
        <ele>174</ele>
        <time>2018-04-07T12:44:49Z</time>
      </trkpt>
      <trkpt lat="48.68602" lon="1.86566">
        <ele>179</ele>
        <time>2018-04-07T12:45:49Z</time>
      </trkpt>
      <trkpt lat="48.68525" lon="1.86444">
        <ele>180</ele>
        <time>2018-04-07T12:46:49Z</time>
      </trkpt>
      <trkpt lat="48.68433" lon="1.86562">
        <ele>183</ele>
        <time>2018-04-07T12:47:49Z</time>
      </trkpt>
      <trkpt lat="48.68342" lon="1.86429">
        <ele>183</ele>
        <time>2018-04-07T12:48:49Z</time>
      </trkpt>
      <trkpt lat="48.68359" lon="1.86388">
        <ele>181</ele>
        <time>2018-04-07T12:49:49Z</time>
      </trkpt>
      <trkpt lat="48.68357" lon="1.86364">
        <ele>180</ele>
        <time>2018-04-07T12:50:49Z</time>
      </trkpt>
      <trkpt lat="48.68186" lon="1.86099">
        <ele>180</ele>
        <time>2018-04-07T12:51:49Z</time>
      </trkpt>
      <trkpt lat="48.68187" lon="1.86071">
        <ele>180</ele>
        <time>2018-04-07T12:52:49Z</time>
      </trkpt>
      <trkpt lat="48.68159" lon="1.86036">
        <ele>181</ele>
        <time>2018-04-07T12:53:49Z</time>
      </trkpt>
      <trkpt lat="48.6815" lon="1.85992">
        <ele>181</ele>
        <time>2018-04-07T12:54:49Z</time>
      </trkpt>
      <trkpt lat="48.68132" lon="1.8601">
        <ele>181</ele>
        <time>2018-04-07T12:55:49Z</time>
      </trkpt>
      <trkpt lat="48.67795" lon="1.85852">
        <ele>178</ele>
        <time>2018-04-07T12:56:49Z</time>
      </trkpt>
      <trkpt lat="48.67447" lon="1.85698">
        <ele>175</ele>
        <time>2018-04-07T12:57:49Z</time>
      </trkpt>
      <trkpt lat="48.67479" lon="1.85109">
        <ele>178</ele>
        <time>2018-04-07T12:58:49Z</time>
      </trkpt>
      <trkpt lat="48.67506" lon="1.8456">
        <ele>181</ele>
        <time>2018-04-07T12:59:49Z</time>
      </trkpt>
      <trkpt lat="48.67559" lon="1.84528">
        <ele>181</ele>
        <time>2018-04-07T13:00:49Z</time>
      </trkpt>
      <trkpt lat="48.67601" lon="1.84512">
        <ele>181</ele>
        <time>2018-04-07T13:01:49Z</time>
      </trkpt>
      <trkpt lat="48.67648" lon="1.84474">
        <ele>182</ele>
        <time>2018-04-07T13:02:49Z</time>
      </trkpt>
      <trkpt lat="48.67726" lon="1.84494">
        <ele>182</ele>
        <time>2018-04-07T13:03:49Z</time>
      </trkpt>
      <trkpt lat="48.67784" lon="1.84609">
        <ele>180</ele>
        <time>2018-04-07T13:04:49Z</time>
      </trkpt>
      <trkpt lat="48.67835" lon="1.84646">
        <ele>182</ele>
        <time>2018-04-07T13:05:49Z</time>
      </trkpt>
      <trkpt lat="48.67859" lon="1.84636">
        <ele>183</ele>
        <time>2018-04-07T13:06:49Z</time>
      </trkpt>
      <trkpt lat="48.6786" lon="1.84618">
        <ele>183</ele>
        <time>2018-04-07T13:07:49Z</time>
      </trkpt>
      <trkpt lat="48.67912" lon="1.84612">
        <ele>184</ele>
        <time>2018-04-07T13:08:49Z</time>
      </trkpt>
      <trkpt lat="48.67951" lon="1.84566">
        <ele>186</ele>
        <time>2018-04-07T13:09:49Z</time>
      </trkpt>
      <trkpt lat="48.67995" lon="1.84538">
        <ele>186</ele>
        <time>2018-04-07T13:10:49Z</time>
      </trkpt>
      <trkpt lat="48.68022" lon="1.84495">
        <ele>185</ele>
        <time>2018-04-07T13:11:49Z</time>
      </trkpt>
      <trkpt lat="48.68031" lon="1.84456">
        <ele>185</ele>
        <time>2018-04-07T13:12:49Z</time>
      </trkpt>
      <trkpt lat="48.68132" lon="1.84359">
        <ele>184</ele>
        <time>2018-04-07T13:13:49Z</time>
      </trkpt>
      <trkpt lat="48.68192" lon="1.84244">
        <ele>180</ele>
        <time>2018-04-07T13:14:49Z</time>
      </trkpt>
      <trkpt lat="48.68065" lon="1.84237">
        <ele>182</ele>
        <time>2018-04-07T13:15:49Z</time>
      </trkpt>
      <trkpt lat="48.68048" lon="1.84208">
        <ele>182</ele>
        <time>2018-04-07T13:16:49Z</time>
      </trkpt>
      <trkpt lat="48.68029" lon="1.84078">
        <ele>183</ele>
        <time>2018-04-07T13:17:49Z</time>
      </trkpt>
      <trkpt lat="48.68005" lon="1.84047">
        <ele>184</ele>
        <time>2018-04-07T13:18:49Z</time>
      </trkpt>
      <trkpt lat="48.67891" lon="1.84081">
        <ele>180</ele>
        <time>2018-04-07T13:19:49Z</time>
      </trkpt>
      <trkpt lat="48.67894" lon="1.83978">
        <ele>183</ele>
        <time>2018-04-07T13:20:49Z</time>
      </trkpt>
      <trkpt lat="48.67789" lon="1.83838">
        <ele>181</ele>
        <time>2018-04-07T13:21:49Z</time>
      </trkpt>
      <trkpt lat="48.67608" lon="1.82193">
        <ele>181</ele>
        <time>2018-04-07T13:22:49Z</time>
      </trkpt>
      <trkpt lat="48.67656" lon="1.82163">
        <ele>181</ele>
        <time>2018-04-07T13:23:49Z</time>
      </trkpt>
      <trkpt lat="48.67667" lon="1.82119">
        <ele>178</ele>
        <time>2018-04-07T13:24:49Z</time>
      </trkpt>
      <trkpt lat="48.67684" lon="1.82081">
        <ele>176</ele>
        <time>2018-04-07T13:25:49Z</time>
      </trkpt>
      <trkpt lat="48.67675" lon="1.81949">
        <ele>176</ele>
        <time>2018-04-07T13:26:49Z</time>
      </trkpt>
      <trkpt lat="48.67691" lon="1.81844">
        <ele>176</ele>
        <time>2018-04-07T13:27:49Z</time>
      </trkpt>
      <trkpt lat="48.67679" lon="1.81753">
        <ele>176</ele>
        <time>2018-04-07T13:28:49Z</time>
      </trkpt>
      <trkpt lat="48.67674" lon="1.81562">
        <ele>178</ele>
        <time>2018-04-07T13:29:49Z</time>
      </trkpt>
      <trkpt lat="48.67686" lon="1.81414">
        <ele>178</ele>
        <time>2018-04-07T13:30:49Z</time>
      </trkpt>
      <trkpt lat="48.67753" lon="1.81464">
        <ele>178</ele>
        <time>2018-04-07T13:31:49Z</time>
      </trkpt>
      <trkpt lat="48.67805" lon="1.81363">
        <ele>178</ele>
        <time>2018-04-07T13:32:49Z</time>
      </trkpt>
      <trkpt lat="48.67832" lon="1.81314">
        <ele>179</ele>
        <time>2018-04-07T13:33:49Z</time>
      </trkpt>
      <trkpt lat="48.67879" lon="1.81284">
        <ele>179</ele>
        <time>2018-04-07T13:34:49Z</time>
      </trkpt>
      <trkpt lat="48.67973" lon="1.81272">
        <ele>177</ele>
        <time>2018-04-07T13:35:49Z</time>
      </trkpt>
      <trkpt lat="48.68073" lon="1.813">
        <ele>176</ele>
        <time>2018-04-07T13:36:49Z</time>
      </trkpt>
      <trkpt lat="48.68134" lon="1.81314">
        <ele>177</ele>
        <time>2018-04-07T13:37:49Z</time>
      </trkpt>
      <trkpt lat="48.68197" lon="1.8128">
        <ele>178</ele>
        <time>2018-04-07T13:38:49Z</time>
      </trkpt>
      <trkpt lat="48.68235" lon="1.81259">
        <ele>178</ele>
        <time>2018-04-07T13:39:49Z</time>
      </trkpt>
      <trkpt lat="48.68313" lon="1.81241">
        <ele>179</ele>
        <time>2018-04-07T13:40:49Z</time>
      </trkpt>
      <trkpt lat="48.68392" lon="1.81214">
        <ele>179</ele>
        <time>2018-04-07T13:41:49Z</time>
      </trkpt>
      <trkpt lat="48.68454" lon="1.81207">
        <ele>178</ele>
        <time>2018-04-07T13:42:49Z</time>
      </trkpt>
      <trkpt lat="48.68499" lon="1.81221">
        <ele>179</ele>
        <time>2018-04-07T13:43:49Z</time>
      </trkpt>
      <trkpt lat="48.68517" lon="1.81184">
        <ele>179</ele>
        <time>2018-04-07T13:44:49Z</time>
      </trkpt>
      <trkpt lat="48.6853" lon="1.81063">
        <ele>179</ele>
        <time>2018-04-07T13:45:49Z</time>
      </trkpt>
      <trkpt lat="48.68551" lon="1.81038">
        <ele>180</ele>
        <time>2018-04-07T13:46:49Z</time>
      </trkpt>
      <trkpt lat="48.68567" lon="1.80999">
        <ele>181</ele>
        <time>2018-04-07T13:47:49Z</time>
      </trkpt>
      <trkpt lat="48.68559" lon="1.80898">
        <ele>180</ele>
        <time>2018-04-07T13:48:49Z</time>
      </trkpt>
      <trkpt lat="48.68568" lon="1.80767">
        <ele>182</ele>
        <time>2018-04-07T13:49:49Z</time>
      </trkpt>
      <trkpt lat="48.68921" lon="1.80875">
        <ele>184</ele>
        <time>2018-04-07T13:50:49Z</time>
      </trkpt>
      <trkpt lat="48.69161" lon="1.80949">
        <ele>185</ele>
        <time>2018-04-07T13:51:49Z</time>
      </trkpt>
      <trkpt lat="48.694" lon="1.80696">
        <ele>182</ele>
        <time>2018-04-07T13:52:49Z</time>
      </trkpt>
      <trkpt lat="48.6943" lon="1.80678">
        <ele>184</ele>
        <time>2018-04-07T13:53:49Z</time>
      </trkpt>
      <trkpt lat="48.69481" lon="1.80686">
        <ele>183</ele>
        <time>2018-04-07T13:54:49Z</time>
      </trkpt>
      <trkpt lat="48.69542" lon="1.80586">
        <ele>183</ele>
        <time>2018-04-07T13:55:49Z</time>
      </trkpt>
      <trkpt lat="48.69629" lon="1.8052">
        <ele>183</ele>
        <time>2018-04-07T13:56:49Z</time>
      </trkpt>
      <trkpt lat="48.69687" lon="1.80452">
        <ele>181</ele>
        <time>2018-04-07T13:57:49Z</time>
      </trkpt>
      <trkpt lat="48.69705" lon="1.80429">
        <ele>181</ele>
        <time>2018-04-07T13:58:49Z</time>
      </trkpt>
      <trkpt lat="48.69935" lon="1.80117">
        <ele>186</ele>
        <time>2018-04-07T13:59:49Z</time>
      </trkpt>
      <trkpt lat="48.70039" lon="1.79969">
        <ele>187</ele>
        <time>2018-04-07T14:00:49Z</time>
      </trkpt>
      <trkpt lat="48.70165" lon="1.79736">
        <ele>189</ele>
        <time>2018-04-07T14:01:49Z</time>
      </trkpt>
      <trkpt lat="48.7028" lon="1.79622">
        <ele>186</ele>
        <time>2018-04-07T14:02:49Z</time>
      </trkpt>
      <trkpt lat="48.70397" lon="1.79533">
        <ele>186</ele>
        <time>2018-04-07T14:03:49Z</time>
      </trkpt>
      <trkpt lat="48.70542" lon="1.79426">
        <ele>185</ele>
        <time>2018-04-07T14:04:49Z</time>
      </trkpt>
      <trkpt lat="48.70676" lon="1.79411">
        <ele>184</ele>
        <time>2018-04-07T14:05:49Z</time>
      </trkpt>
      <trkpt lat="48.7075" lon="1.79414">
        <ele>186</ele>
        <time>2018-04-07T14:06:49Z</time>
      </trkpt>
      <trkpt lat="48.70869" lon="1.79456">
        <ele>185</ele>
        <time>2018-04-07T14:07:49Z</time>
      </trkpt>
      <trkpt lat="48.71027" lon="1.79434">
        <ele>181</ele>
        <time>2018-04-07T14:08:49Z</time>
      </trkpt>
      <trkpt lat="48.71071" lon="1.79386">
        <ele>183</ele>
        <time>2018-04-07T14:09:49Z</time>
      </trkpt>
      <trkpt lat="48.71122" lon="1.79345">
        <ele>181</ele>
        <time>2018-04-07T14:10:49Z</time>
      </trkpt>
      <trkpt lat="48.71239" lon="1.79314">
        <ele>180</ele>
        <time>2018-04-07T14:11:49Z</time>
      </trkpt>
      <trkpt lat="48.71353" lon="1.79332">
        <ele>179</ele>
        <time>2018-04-07T14:12:49Z</time>
      </trkpt>
      <trkpt lat="48.7148" lon="1.79373">
        <ele>178</ele>
        <time>2018-04-07T14:13:49Z</time>
      </trkpt>
      <trkpt lat="48.71531" lon="1.79478">
        <ele>176</ele>
        <time>2018-04-07T14:14:49Z</time>
      </trkpt>
      <trkpt lat="48.71603" lon="1.7957">
        <ele>173</ele>
        <time>2018-04-07T14:15:49Z</time>
      </trkpt>
      <trkpt lat="48.71656" lon="1.79666">
        <ele>172</ele>
        <time>2018-04-07T14:16:49Z</time>
      </trkpt>
      <trkpt lat="48.71743" lon="1.7979">
        <ele>173</ele>
        <time>2018-04-07T14:17:49Z</time>
      </trkpt>
      <trkpt lat="48.71728" lon="1.79861">
        <ele>174</ele>
        <time>2018-04-07T14:18:49Z</time>
      </trkpt>
      <trkpt lat="48.71762" lon="1.79891">
        <ele>177</ele>
        <time>2018-04-07T14:19:49Z</time>
      </trkpt>
      <trkpt lat="48.71811" lon="1.8">
        <ele>181</ele>
        <time>2018-04-07T14:20:49Z</time>
      </trkpt>
      <trkpt lat="48.71842" lon="1.79954">
        <ele>181</ele>
        <time>2018-04-07T14:21:49Z</time>
      </trkpt>
      <trkpt lat="48.72465" lon="1.80719">
        <ele>175</ele>
        <time>2018-04-07T14:22:49Z</time>
      </trkpt>
      <trkpt lat="48.72674" lon="1.81058">
        <ele>183</ele>
        <time>2018-04-07T14:23:49Z</time>
      </trkpt>
      <trkpt lat="48.72895" lon="1.8168">
        <ele>188</ele>
        <time>2018-04-07T14:24:49Z</time>
      </trkpt>
      <trkpt lat="48.72729" lon="1.82284">
        <ele>183</ele>
        <time>2018-04-07T14:25:49Z</time>
      </trkpt>
      <trkpt lat="48.72568" lon="1.838">
        <ele>191</ele>
        <time>2018-04-07T14:26:49Z</time>
      </trkpt>
      <trkpt lat="48.7251" lon="1.84287">
        <ele>190</ele>
        <time>2018-04-07T14:27:49Z</time>
      </trkpt>
      <trkpt lat="48.72588" lon="1.85057">
        <ele>188</ele>
        <time>2018-04-07T14:28:49Z</time>
      </trkpt>
      <trkpt lat="48.72581" lon="1.85083">
        <ele>190</ele>
        <time>2018-04-07T14:29:49Z</time>
      </trkpt>
      <trkpt lat="48.72875" lon="1.86057">
        <ele>190</ele>
        <time>2018-04-07T14:30:49Z</time>
      </trkpt>
      <trkpt lat="48.72922" lon="1.86132">
        <ele>190</ele>
        <time>2018-04-07T14:31:49Z</time>
      </trkpt>
      <trkpt lat="48.7316" lon="1.86291">
        <ele>188</ele>
        <time>2018-04-07T14:32:49Z</time>
      </trkpt>
      <trkpt lat="48.72694" lon="1.87253">
        <ele>179</ele>
        <time>2018-04-07T14:33:49Z</time>
      </trkpt>
      <trkpt lat="48.72906" lon="1.87433">
        <ele>177</ele>
        <time>2018-04-07T14:34:49Z</time>
      </trkpt>
      <trkpt lat="48.72906" lon="1.87549">
        <ele>177</ele>
        <time>2018-04-07T14:35:49Z</time>
      </trkpt>
      <trkpt lat="48.72871" lon="1.8769">
        <ele>175</ele>
        <time>2018-04-07T14:36:49Z</time>
      </trkpt>
      <trkpt lat="48.72772" lon="1.87827">
        <ele>172</ele>
        <time>2018-04-07T14:37:49Z</time>
      </trkpt>
      <trkpt lat="48.72639" lon="1.88216">
        <ele>171</ele>
        <time>2018-04-07T14:38:49Z</time>
      </trkpt>
      <trkpt lat="48.72541" lon="1.88615">
        <ele>170</ele>
        <time>2018-04-07T14:39:49Z</time>
      </trkpt>
      <trkpt lat="48.72557" lon="1.88675">
        <ele>171</ele>
        <time>2018-04-07T14:40:49Z</time>
      </trkpt>
      <trkpt lat="48.72453" lon="1.88716">
        <ele>171</ele>
        <time>2018-04-07T14:41:49Z</time>
      </trkpt>
      <trkpt lat="48.72343" lon="1.88888">
        <ele>172</ele>
        <time>2018-04-07T14:42:49Z</time>
      </trkpt>
      <trkpt lat="48.72291" lon="1.88971">
        <ele>172</ele>
        <time>2018-04-07T14:43:49Z</time>
      </trkpt>
      <trkpt lat="48.72241" lon="1.89031">
        <ele>172</ele>
        <time>2018-04-07T14:44:49Z</time>
      </trkpt>
      <trkpt lat="48.72214" lon="1.89018">
        <ele>172</ele>
        <time>2018-04-07T14:45:49Z</time>
      </trkpt>
      <trkpt lat="48.72201" lon="1.89037">
        <ele>173</ele>
        <time>2018-04-07T14:46:49Z</time>
      </trkpt>
      <trkpt lat="48.72221" lon="1.89069">
        <ele>172</ele>
        <time>2018-04-07T14:47:49Z</time>
      </trkpt>
      <trkpt lat="48.72205" lon="1.89081">
        <ele>173</ele>
        <time>2018-04-07T14:48:49Z</time>
      </trkpt>
      <trkpt lat="48.72196" lon="1.89064">
        <ele>173</ele>
        <time>2018-04-07T14:49:49Z</time>
      </trkpt>
      <trkpt lat="48.72099" lon="1.89174">
        <ele>174</ele>
        <time>2018-04-07T14:50:49Z</time>
      </trkpt>
      <trkpt lat="48.7181" lon="1.89471">
        <ele>176</ele>
        <time>2018-04-07T14:51:49Z</time>
      </trkpt>
      <trkpt lat="48.71684" lon="1.89328">
        <ele>175</ele>
        <time>2018-04-07T14:52:49Z</time>
      </trkpt>
      <trkpt lat="48.71638" lon="1.89326">
        <ele>174</ele>
        <time>2018-04-07T14:53:49Z</time>
      </trkpt>
      <trkpt lat="48.7163" lon="1.89295">
        <ele>174</ele>
        <time>2018-04-07T14:54:49Z</time>
      </trkpt>
      <trkpt lat="48.71608" lon="1.893">
        <ele>174</ele>
        <time>2018-04-07T14:55:49Z</time>
      </trkpt>
      <trkpt lat="48.71601" lon="1.89319">
        <ele>174</ele>
        <time>2018-04-07T14:56:49Z</time>
      </trkpt>
      <trkpt lat="48.71597" lon="1.89358">
        <ele>173</ele>
        <time>2018-04-07T14:57:49Z</time>
      </trkpt>
      <trkpt lat="48.71558" lon="1.89344">
        <ele>172</ele>
        <time>2018-04-07T14:58:49Z</time>
      </trkpt>
      <trkpt lat="48.71535" lon="1.89428">
        <ele>171</ele>
        <time>2018-04-07T14:59:49Z</time>
      </trkpt>
      <trkpt lat="48.71529" lon="1.89552">
        <ele>170</ele>
        <time>2018-04-07T15:00:49Z</time>
      </trkpt>
      <trkpt lat="48.71553" lon="1.89675">
        <ele>171</ele>
        <time>2018-04-07T15:01:49Z</time>
      </trkpt>
    </trkseg>
  </trk>
</gpx>